createdAt,value
2019-03-16T00:01:29.059Z,99.90
2019-03-16T00:03:59.976Z,99.90
2019-03-16T00:06:30.587Z,99.90
2019-03-16T00:09:01.360Z,99.90
2019-03-16T00:11:32.301Z,99.90
2019-03-16T00:14:02.912Z,99.90
2019-03-16T00:16:33.661Z,99.90
2019-03-16T00:19:04.328Z,99.90
2019-03-16T00:21:35.243Z,99.90
2019-03-16T00:24:06.020Z,99.90
2019-03-16T00:26:36.627Z,99.90
2019-03-16T00:29:07.246Z,99.90
2019-03-16T00:31:37.951Z,99.90
2019-03-16T00:34:08.936Z,99.90
2019-03-16T00:36:40.197Z,99.90
2019-03-16T00:39:11.706Z,99.90
2019-03-16T00:41:42.304Z,99.90
2019-03-16T00:44:12.911Z,99.90
2019-03-16T00:46:43.592Z,99.90
2019-03-16T00:49:14.208Z,99.90
2019-03-16T00:51:45.121Z,99.90
2019-03-16T00:54:15.890Z,99.90
2019-03-16T00:56:46.582Z,99.90
2019-03-16T00:59:17.192Z,99.90
2019-03-16T01:01:48.352Z,99.90
2019-03-16T01:04:18.957Z,99.90
2019-03-16T01:06:49.915Z,99.90
2019-03-16T01:09:20.633Z,99.90
2019-03-16T01:11:51.247Z,99.90
2019-03-16T01:14:22.176Z,99.90
2019-03-16T01:16:52.910Z,99.90
2019-03-16T01:19:23.865Z,99.90
2019-03-16T01:21:54.478Z,99.90
2019-03-16T01:24:25.212Z,99.90
2019-03-16T01:26:56.108Z,99.90
2019-03-16T01:29:26.726Z,99.90
2019-03-16T01:31:57.421Z,99.90
2019-03-16T01:34:28.018Z,99.90
2019-03-16T01:36:58.921Z,99.90
2019-03-16T01:39:29.532Z,99.90
2019-03-16T01:42:00.822Z,99.90
2019-03-16T01:44:31.403Z,99.90
2019-03-16T01:47:02.122Z,99.90
2019-03-16T01:49:33.059Z,99.90
2019-03-16T01:52:04.164Z,99.90
2019-03-16T01:54:35.308Z,99.90
2019-03-16T01:57:05.942Z,99.90
2019-03-16T01:59:36.709Z,99.90
2019-03-16T02:02:07.336Z,99.90
2019-03-16T02:04:38.071Z,99.90
2019-03-16T02:07:08.676Z,99.90
2019-03-16T02:09:39.413Z,99.90
2019-03-16T02:12:10.042Z,99.90
2019-03-16T02:14:40.786Z,99.90
2019-03-16T02:17:11.669Z,99.90
2019-03-16T02:19:43.001Z,99.90
2019-03-16T02:22:13.745Z,99.90
2019-03-16T02:24:44.341Z,99.90
2019-03-16T02:27:14.926Z,99.90
2019-03-16T02:29:45.607Z,99.90
2019-03-16T02:32:16.571Z,99.90
2019-03-16T02:35:06.925Z,99.90
2019-03-16T02:37:37.682Z,99.90
2019-03-16T02:40:08.978Z,99.90
2019-03-16T02:42:39.582Z,99.90
2019-03-16T02:45:10.431Z,99.90
2019-03-16T02:47:41.394Z,99.90
2019-03-16T02:50:12.330Z,99.90
2019-03-16T02:52:43.083Z,99.90
2019-03-16T02:55:13.700Z,99.90
2019-03-16T02:57:44.300Z,99.90
2019-03-16T03:00:15.119Z,99.90
2019-03-16T03:02:45.712Z,99.90
2019-03-16T03:05:16.321Z,99.90
2019-03-16T03:07:47.087Z,99.90
2019-03-16T03:10:17.721Z,99.90
2019-03-16T03:12:48.777Z,99.90
2019-03-16T03:15:19.390Z,99.90
2019-03-16T03:17:50.305Z,99.90
2019-03-16T03:20:20.921Z,99.90
2019-03-16T03:22:52.000Z,99.90
2019-03-16T03:25:23.012Z,99.90
2019-03-16T03:27:53.935Z,99.90
2019-03-16T03:30:24.615Z,99.90
2019-03-16T03:32:55.616Z,99.90
2019-03-16T03:35:29.335Z,99.90
2019-03-16T03:37:58.552Z,99.90
2019-03-16T03:40:29.275Z,99.90
2019-03-16T03:43:00.037Z,99.90
2019-03-16T03:45:30.708Z,99.90
2019-03-16T03:48:01.302Z,99.90
2019-03-16T03:50:32.147Z,99.90
2019-03-16T03:53:02.755Z,99.90
2019-03-16T03:55:33.590Z,99.90
2019-03-16T03:58:04.514Z,99.90
2019-03-16T04:00:35.476Z,99.90
2019-03-16T04:03:06.091Z,99.90
2019-03-16T04:05:36.841Z,99.90
2019-03-16T04:08:07.448Z,99.90
2019-03-16T04:10:38.040Z,99.90
2019-03-16T04:13:09.084Z,99.90
2019-03-16T04:15:40.600Z,99.90
2019-03-16T04:18:11.187Z,99.90
2019-03-16T04:20:41.802Z,99.90
2019-03-16T04:23:12.487Z,99.90
2019-03-16T04:25:43.081Z,99.90
2019-03-16T04:28:13.704Z,99.90
2019-03-16T04:30:45.653Z,99.90
2019-03-16T04:33:16.243Z,99.90
2019-03-16T04:35:46.869Z,99.90
2019-03-16T04:38:18.322Z,99.90
2019-03-16T04:40:49.273Z,99.90
2019-03-16T04:43:20.238Z,99.90
2019-03-16T04:45:50.903Z,99.90
2019-03-16T04:48:21.831Z,99.90
2019-03-16T04:50:52.417Z,99.90
2019-03-16T04:53:23.102Z,99.90
2019-03-16T04:55:53.894Z,99.90
2019-03-16T04:58:24.506Z,99.90
2019-03-16T05:00:55.208Z,99.90
2019-03-16T05:03:25.793Z,99.90
2019-03-16T05:05:56.464Z,99.90
2019-03-16T05:08:27.205Z,99.90
2019-03-16T05:10:57.798Z,99.90
2019-03-16T05:13:29.086Z,99.90
2019-03-16T05:16:00.740Z,99.90
2019-03-16T05:18:31.474Z,99.90
2019-03-16T05:21:02.045Z,99.90
2019-03-16T05:23:32.641Z,99.90
2019-03-16T05:26:04.088Z,99.90
2019-03-16T05:28:34.683Z,99.90
2019-03-16T05:31:05.296Z,99.90
2019-03-16T05:33:35.973Z,99.90
2019-03-16T05:36:06.561Z,99.90
2019-03-16T05:38:37.164Z,99.90
2019-03-16T05:41:07.842Z,99.90
2019-03-16T05:43:38.719Z,99.90
2019-03-16T05:46:09.312Z,99.90
2019-03-16T05:48:40.453Z,99.90
2019-03-16T05:51:11.060Z,99.90
2019-03-16T05:53:41.650Z,99.90
2019-03-16T05:56:12.609Z,99.90
2019-03-16T05:58:43.584Z,99.90
2019-03-16T06:01:14.189Z,99.90
2019-03-16T06:03:44.862Z,99.90
2019-03-16T06:06:15.440Z,99.90
2019-03-16T06:08:46.406Z,99.90
2019-03-16T06:11:17.481Z,99.90
2019-03-16T06:13:48.492Z,99.90
2019-03-16T06:16:19.085Z,99.90
2019-03-16T06:18:50.411Z,99.90
2019-03-16T06:21:21.258Z,99.90
2019-03-16T06:23:52.129Z,99.90
2019-03-16T06:26:23.060Z,99.90
2019-03-16T06:28:54.209Z,99.90
2019-03-16T06:31:24.830Z,99.90
2019-03-16T06:33:55.790Z,99.90
2019-03-16T06:36:26.456Z,99.90
2019-03-16T06:38:57.052Z,99.90
2019-03-16T06:41:27.944Z,99.90
2019-03-16T06:43:58.677Z,99.90
2019-03-16T06:46:29.266Z,99.90
2019-03-16T06:48:59.883Z,99.90
2019-03-16T06:51:30.571Z,99.90
2019-03-16T06:54:01.457Z,99.90
2019-03-16T06:56:32.257Z,99.90
2019-03-16T06:59:02.924Z,99.90
2019-03-16T07:01:33.498Z,99.90
2019-03-16T07:04:04.442Z,99.90
2019-03-16T07:06:35.147Z,99.90
2019-03-16T07:09:08.332Z,99.90
2019-03-16T07:11:39.234Z,99.90
2019-03-16T07:14:10.483Z,99.90
2019-03-16T07:16:41.056Z,99.90
2019-03-16T07:19:11.670Z,99.90
2019-03-16T07:21:42.513Z,99.90
2019-03-16T07:24:13.106Z,99.90
2019-03-16T07:26:43.833Z,99.90
2019-03-16T07:29:14.515Z,99.90
2019-03-16T07:31:45.408Z,99.90
2019-03-16T07:34:15.995Z,99.90
2019-03-16T07:36:46.715Z,99.90
2019-03-16T07:39:17.683Z,99.90
2019-03-16T07:41:49.098Z,99.90
2019-03-16T07:44:20.215Z,99.90
2019-03-16T07:46:50.808Z,99.90
2019-03-16T07:49:21.426Z,99.90
2019-03-16T07:51:52.134Z,99.90
2019-03-16T07:54:22.766Z,99.90
2019-03-16T07:56:53.463Z,99.90
2019-03-16T07:59:24.508Z,99.90
2019-03-16T08:01:55.091Z,99.90
2019-03-16T08:04:25.682Z,99.90
2019-03-16T08:06:56.355Z,99.90
2019-03-16T08:09:26.935Z,99.90
2019-03-16T08:11:58.235Z,99.90
2019-03-16T08:14:28.958Z,99.90
2019-03-16T08:16:59.942Z,99.90
2019-03-16T08:19:31.261Z,99.90
2019-03-16T08:22:01.840Z,99.90
2019-03-16T08:24:32.614Z,99.90
2019-03-16T08:27:07.181Z,99.90
2019-03-16T08:29:36.561Z,99.90
2019-03-16T08:32:07.190Z,99.90
2019-03-16T08:34:37.915Z,99.90
2019-03-16T08:37:08.483Z,99.90
2019-03-16T08:39:39.076Z,99.90
2019-03-16T08:42:12.207Z,99.90
2019-03-16T08:44:42.100Z,99.90
2019-03-16T08:47:12.687Z,99.90
2019-03-16T08:49:43.416Z,99.90
2019-03-16T08:52:14.375Z,99.90
2019-03-16T08:54:44.980Z,99.90
2019-03-16T08:57:15.853Z,99.90
2019-03-16T08:59:46.462Z,99.90
2019-03-16T09:02:17.257Z,99.90
2019-03-16T09:04:47.921Z,99.90
2019-03-16T09:07:19.491Z,99.90
2019-03-16T09:09:50.089Z,99.90
2019-03-16T09:12:20.838Z,99.90
2019-03-16T09:14:51.456Z,99.90
2019-03-16T09:17:22.428Z,99.90
2019-03-16T09:19:53.391Z,99.90
2019-03-16T09:22:24.053Z,99.90
2019-03-16T09:24:54.633Z,99.90
2019-03-16T09:27:31.130Z,99.90
2019-03-16T09:29:58.296Z,99.90
2019-03-16T09:32:29.253Z,99.90
2019-03-16T09:34:59.914Z,99.90
2019-03-16T09:37:30.608Z,99.90
2019-03-16T09:40:01.554Z,99.90
2019-03-16T09:42:32.127Z,99.90
2019-03-16T09:45:03.207Z,99.90
2019-03-16T09:47:33.792Z,99.90
2019-03-16T09:50:07.279Z,99.90
2019-03-16T09:52:37.053Z,99.90
2019-03-16T09:55:07.782Z,99.90
2019-03-16T09:57:38.494Z,99.90
2019-03-16T10:00:11.652Z,99.90
2019-03-16T10:02:42.244Z,99.90
2019-03-16T10:05:13.096Z,99.90
2019-03-16T10:07:43.696Z,99.90
2019-03-16T10:10:14.464Z,62.40
2019-03-16T10:12:45.232Z,1.00
2019-03-16T10:15:16.036Z,6.40
2019-03-16T10:17:46.625Z,32.40
2019-03-16T10:20:17.298Z,1.00
2019-03-16T10:22:47.878Z,99.90
2019-03-16T10:25:18.477Z,99.90
2019-03-16T10:27:49.211Z,99.90
2019-03-16T10:30:19.830Z,99.90
2019-03-16T10:32:50.423Z,99.90
2019-03-16T10:35:21.115Z,99.90
2019-03-16T10:37:52.034Z,99.90
2019-03-16T10:40:22.641Z,99.90
2019-03-16T10:42:53.607Z,99.90
2019-03-16T10:45:24.205Z,99.90
2019-03-16T10:47:54.834Z,99.90
2019-03-16T10:50:25.878Z,99.90
2019-03-16T10:52:56.491Z,99.90
2019-03-16T10:55:27.184Z,99.90
2019-03-16T10:57:57.934Z,93.80
2019-03-16T11:00:28.815Z,74.70
2019-03-16T11:02:59.854Z,85.60
2019-03-16T11:05:30.819Z,63.40
2019-03-16T11:08:01.386Z,1.00
2019-03-16T11:10:32.093Z,1.00
2019-03-16T11:13:02.970Z,1.00
2019-03-16T11:15:34.277Z,1.00
2019-03-16T11:18:04.862Z,1.00
2019-03-16T11:20:35.841Z,99.90
2019-03-16T11:23:07.128Z,99.90
2019-03-16T11:25:37.812Z,99.90
2019-03-16T11:28:08.690Z,1.00
2019-03-16T11:30:39.309Z,99.90
2019-03-16T11:33:10.008Z,99.90
2019-03-16T11:35:40.608Z,99.90
2019-03-16T11:38:11.185Z,1.00
2019-03-16T11:40:41.934Z,99.90
2019-03-16T11:43:12.526Z,99.90
2019-03-16T11:45:43.111Z,99.90
2019-03-16T11:48:13.787Z,99.90
2019-03-16T11:50:44.698Z,99.90
2019-03-16T11:53:15.361Z,99.90
2019-03-16T11:55:54.346Z,99.90
2019-03-16T11:58:24.326Z,99.90
2019-03-16T12:00:54.943Z,99.90
2019-03-16T12:03:25.897Z,99.90
2019-03-16T12:05:56.497Z,99.90
2019-03-16T12:08:27.107Z,99.90
2019-03-16T12:10:57.795Z,99.90
2019-03-16T12:13:28.505Z,99.90
2019-03-16T12:15:59.106Z,99.90
2019-03-16T12:18:29.691Z,99.90
2019-03-16T12:21:00.400Z,99.90
2019-03-16T12:23:31.106Z,99.90
2019-03-16T12:26:02.110Z,99.90
2019-03-16T12:28:32.727Z,99.90
2019-03-16T12:31:03.452Z,99.90
2019-03-16T12:33:34.394Z,99.90
2019-03-16T12:36:04.988Z,99.90
2019-03-16T12:38:35.831Z,99.90
2019-03-16T12:41:06.524Z,50.40
2019-03-16T12:43:37.470Z,99.90
2019-03-16T12:46:08.149Z,17.30
2019-03-16T12:48:38.714Z,1.00
2019-03-16T12:51:09.306Z,99.90
2019-03-16T12:53:40.353Z,1.00
2019-03-16T12:56:10.952Z,99.90
2019-03-16T12:58:41.546Z,31.50
2019-03-16T13:01:12.726Z,99.90
2019-03-16T13:03:43.847Z,99.90
2019-03-16T13:06:14.439Z,1.00
2019-03-16T13:08:45.152Z,99.90
2019-03-16T13:11:15.804Z,1.00
2019-03-16T13:13:46.746Z,1.00
2019-03-16T13:16:17.670Z,1.00
2019-03-16T13:18:48.282Z,18.30
2019-03-16T13:21:18.892Z,1.00
2019-03-16T13:23:49.461Z,99.90
2019-03-16T13:26:20.142Z,99.90
2019-03-16T13:28:50.727Z,99.30
2019-03-16T13:31:21.622Z,1.00
2019-03-16T13:33:53.441Z,85.60
2019-03-16T13:36:24.245Z,1.00
2019-03-16T13:38:55.202Z,1.00
2019-03-16T13:41:25.898Z,14.90
2019-03-16T13:43:56.870Z,1.00
2019-03-16T13:46:27.455Z,1.00
2019-03-16T13:48:58.159Z,1.00
2019-03-16T13:51:28.878Z,1.00
2019-03-16T13:53:59.825Z,1.00
2019-03-16T13:56:30.622Z,1.00
2019-03-16T13:59:01.609Z,1.00
2019-03-16T14:01:32.593Z,1.00
2019-03-16T14:04:03.582Z,1.00
2019-03-16T14:06:34.870Z,1.00
2019-03-16T14:09:07.614Z,1.00
2019-03-16T14:11:41.138Z,1.00
2019-03-16T14:14:10.892Z,1.00
2019-03-16T14:16:41.637Z,1.00
2019-03-16T14:19:12.321Z,1.00
2019-03-16T14:21:43.610Z,1.00
2019-03-16T14:24:14.511Z,1.00
2019-03-16T14:26:45.304Z,1.00
2019-03-16T14:29:15.992Z,1.00
2019-03-16T14:31:46.582Z,1.00
2019-03-16T14:34:17.245Z,1.00
2019-03-16T14:36:47.834Z,1.00
2019-03-16T14:39:18.411Z,1.00
2019-03-16T14:41:49.159Z,1.00
2019-03-16T14:44:19.734Z,1.00
2019-03-16T14:46:51.034Z,1.00
2019-03-16T14:49:21.854Z,1.00
2019-03-16T14:51:52.824Z,1.00
2019-03-16T14:54:23.400Z,1.00
2019-03-16T14:56:54.301Z,1.00
2019-03-16T14:59:24.882Z,99.90
2019-03-16T15:01:55.470Z,99.90
2019-03-16T15:04:26.146Z,99.90
2019-03-16T15:06:57.049Z,1.00
2019-03-16T15:09:27.653Z,1.00
2019-03-16T15:11:58.813Z,1.00
2019-03-16T15:14:29.383Z,97.50
2019-03-16T15:16:59.974Z,1.00
2019-03-16T15:19:30.545Z,1.00
2019-03-16T15:22:01.476Z,99.90
2019-03-16T15:24:32.116Z,99.90
2019-03-16T15:27:02.976Z,99.90
2019-03-16T15:29:33.570Z,1.00
2019-03-16T15:32:04.238Z,1.00
2019-03-16T15:34:34.843Z,99.90
2019-03-16T15:37:05.773Z,37.00
2019-03-16T15:39:36.426Z,99.90
2019-03-16T15:42:07.383Z,35.30
2019-03-16T15:44:38.306Z,1.00
2019-03-16T15:47:09.464Z,1.00
2019-03-16T15:49:40.072Z,1.00
2019-03-16T15:52:11.052Z,99.90
2019-03-16T15:54:41.789Z,99.90
2019-03-16T15:57:12.406Z,10.90
2019-03-16T15:59:42.972Z,1.00
2019-03-16T16:02:13.683Z,1.00
2019-03-16T16:04:44.233Z,1.00
2019-03-16T16:07:14.833Z,99.90
2019-03-16T16:09:45.906Z,1.00
2019-03-16T16:12:16.504Z,1.00
2019-03-16T16:14:47.165Z,1.00
2019-03-16T16:17:18.246Z,1.00
2019-03-16T16:19:48.822Z,5.40
2019-03-16T16:22:19.410Z,1.00
2019-03-16T16:24:50.171Z,34.00
2019-03-16T16:27:23.971Z,37.60
2019-03-16T16:29:53.886Z,77.30
2019-03-16T16:32:24.566Z,41.30
2019-03-16T16:34:55.604Z,99.90
2019-03-16T16:37:26.510Z,78.10
2019-03-16T16:39:57.103Z,36.00
2019-03-16T16:42:27.851Z,23.00
2019-03-16T16:44:58.816Z,23.20
2019-03-16T16:47:29.409Z,15.30
2019-03-16T16:50:00.389Z,54.20
2019-03-16T16:52:31.028Z,32.10
2019-03-16T16:55:01.652Z,12.60
2019-03-16T16:57:33.017Z,1.00
2019-03-16T17:00:03.714Z,59.90
2019-03-16T17:02:34.316Z,21.40
2019-03-16T17:05:05.402Z,80.30
2019-03-16T17:07:35.991Z,21.80
2019-03-16T17:10:08.099Z,99.90
2019-03-16T17:12:38.794Z,99.90
2019-03-16T17:15:10.918Z,65.10
2019-03-16T17:17:42.315Z,1.00
2019-03-16T17:20:13.659Z,88.80
2019-03-16T17:22:44.245Z,1.00
2019-03-16T17:25:15.404Z,1.00
2019-03-16T17:27:45.991Z,1.00
2019-03-16T17:30:18.646Z,1.00
2019-03-16T17:32:49.231Z,1.00
2019-03-16T17:35:19.810Z,11.00
2019-03-16T17:37:50.910Z,1.00
2019-03-16T17:40:21.821Z,19.80
2019-03-16T17:42:52.563Z,99.90
2019-03-16T17:45:23.575Z,1.00
2019-03-16T17:47:54.163Z,18.10
2019-03-16T17:50:24.748Z,1.00
2019-03-16T17:52:55.773Z,45.70
2019-03-16T17:55:27.018Z,58.70
2019-03-16T17:57:57.962Z,1.20
2019-03-16T18:00:28.663Z,83.50
2019-03-16T18:02:59.240Z,83.60
2019-03-16T18:05:30.256Z,71.20
2019-03-16T18:08:00.830Z,66.80
2019-03-16T18:10:31.874Z,90.80
2019-03-16T18:13:02.768Z,41.30
2019-03-16T18:15:33.708Z,99.90
2019-03-16T18:18:04.292Z,99.90
2019-03-16T18:20:34.885Z,99.90
2019-03-16T18:23:05.580Z,1.00
2019-03-16T18:25:37.755Z,1.00
2019-03-16T18:28:08.644Z,1.00
2019-03-16T18:30:39.316Z,1.00
2019-03-16T18:33:09.918Z,1.00
2019-03-16T18:35:40.482Z,1.00
2019-03-16T18:38:11.528Z,1.00
2019-03-16T18:40:42.128Z,1.00
2019-03-16T18:43:12.826Z,31.10
2019-03-16T18:45:43.532Z,99.90
2019-03-16T18:48:14.117Z,99.90
2019-03-16T18:50:44.994Z,99.90
2019-03-16T18:53:16.079Z,99.90
2019-03-16T18:55:46.973Z,99.90
2019-03-16T18:58:17.988Z,99.90
2019-03-16T19:00:48.901Z,99.90
2019-03-16T19:03:19.486Z,1.00
2019-03-16T19:05:50.430Z,1.00
2019-03-16T19:08:21.459Z,1.00
2019-03-16T19:10:53.275Z,1.00
2019-03-16T19:13:23.983Z,1.00
2019-03-16T19:15:54.901Z,1.00
2019-03-16T19:18:25.482Z,57.20
2019-03-16T19:20:56.129Z,88.00
2019-03-16T19:23:27.107Z,99.90
2019-03-16T19:25:57.700Z,99.90
2019-03-16T19:28:28.309Z,99.90
2019-03-16T19:30:59.363Z,99.90
2019-03-16T19:33:29.917Z,1.00
2019-03-16T19:36:00.859Z,1.00
2019-03-16T19:38:31.468Z,81.90
2019-03-16T19:41:02.068Z,99.90
2019-03-16T19:43:32.650Z,99.90
2019-03-16T19:46:03.370Z,1.00
2019-03-16T19:48:33.960Z,99.90
2019-03-16T19:51:04.894Z,1.00
2019-03-16T19:53:35.581Z,99.90
2019-03-16T19:56:08.805Z,1.00
2019-03-16T19:58:39.203Z,18.40
2019-03-16T20:01:10.023Z,99.90
2019-03-16T20:03:40.616Z,99.90
2019-03-16T20:06:11.541Z,1.00
2019-03-16T20:08:42.669Z,99.90
2019-03-16T20:11:13.511Z,99.90
2019-03-16T20:13:44.107Z,99.90
2019-03-16T20:16:14.819Z,99.90
2019-03-16T20:18:45.409Z,11.60
2019-03-16T20:21:16.009Z,60.20
2019-03-16T20:23:47.057Z,99.90
2019-03-16T20:26:17.707Z,1.00
2019-03-16T20:28:48.619Z,1.00
2019-03-16T20:31:19.320Z,7.30
2019-03-16T20:33:50.405Z,50.20
2019-03-16T20:36:21.205Z,90.10
2019-03-16T20:38:51.886Z,99.90
2019-03-16T20:41:35.185Z,99.90
2019-03-16T20:43:54.976Z,99.90
2019-03-16T20:46:25.896Z,99.90
2019-03-16T20:48:56.613Z,99.90
2019-03-16T20:51:27.711Z,99.90
2019-03-16T20:53:58.639Z,99.90
2019-03-16T20:56:29.512Z,1.00
2019-03-16T20:59:00.090Z,99.90
2019-03-16T21:01:31.006Z,99.90
2019-03-16T21:04:02.363Z,99.90
2019-03-16T21:06:33.040Z,1.00
2019-03-16T21:09:03.873Z,1.00
2019-03-16T21:11:34.592Z,1.00
2019-03-16T21:14:05.320Z,1.00
2019-03-16T21:16:35.892Z,1.00
2019-03-16T21:19:06.899Z,1.00
2019-03-16T21:21:37.991Z,1.00
2019-03-16T21:24:08.710Z,1.00
2019-03-16T21:26:51.652Z,1.00
2019-03-16T21:29:12.570Z,1.00
2019-03-16T21:31:43.451Z,1.00
2019-03-16T21:34:14.449Z,1.00
2019-03-16T21:36:45.585Z,1.00
2019-03-16T21:39:17.127Z,9.60
2019-03-16T21:41:48.350Z,37.50
2019-03-16T21:44:19.055Z,42.60
2019-03-16T21:46:50.068Z,51.90
2019-03-16T21:49:20.988Z,48.70
2019-03-16T21:51:51.569Z,45.30
2019-03-16T21:54:22.235Z,36.90
2019-03-16T21:56:53.171Z,30.80
2019-03-16T21:59:26.320Z,55.00
2019-03-16T22:01:56.460Z,55.30
2019-03-16T22:04:27.457Z,1.00
2019-03-16T22:06:58.217Z,1.00
2019-03-16T22:09:28.873Z,28.10
2019-03-16T22:11:59.694Z,62.00
2019-03-16T22:14:30.693Z,97.70
2019-03-16T22:17:01.340Z,98.60
2019-03-16T22:19:32.276Z,99.90
2019-03-16T22:22:03.693Z,99.90
2019-03-16T22:24:34.651Z,97.50
2019-03-16T22:27:05.584Z,46.00
2019-03-16T22:29:36.628Z,26.00
2019-03-16T22:32:07.189Z,16.00
2019-03-16T22:34:37.821Z,23.30
2019-03-16T22:37:08.599Z,10.20
2019-03-16T22:39:39.207Z,8.30
2019-03-16T22:42:09.789Z,4.30
2019-03-16T22:44:40.489Z,17.20
2019-03-16T22:47:11.484Z,1.00
2019-03-16T22:49:42.058Z,1.00
2019-03-16T22:52:22.800Z,1.00
2019-03-16T22:54:53.441Z,1.00
2019-03-16T22:57:24.153Z,1.00
2019-03-16T22:59:54.838Z,1.00
2019-03-16T23:02:26.091Z,1.00
2019-03-16T23:04:57.034Z,1.00
2019-03-16T23:07:27.827Z,1.00
2019-03-16T23:09:58.809Z,1.00
2019-03-16T23:12:29.562Z,1.00
2019-03-16T23:15:00.350Z,1.00
2019-03-16T23:17:31.645Z,1.00
2019-03-16T23:20:03.218Z,1.00
2019-03-16T23:22:34.301Z,1.00
2019-03-16T23:25:05.194Z,1.00
2019-03-16T23:27:35.787Z,1.00
2019-03-16T23:30:06.629Z,1.00
2019-03-16T23:32:37.212Z,1.00
2019-03-16T23:35:09.061Z,1.00
2019-03-16T23:37:39.946Z,1.00
2019-03-16T23:40:11.190Z,1.00
2019-03-16T23:42:42.247Z,1.00
2019-03-16T23:45:13.231Z,1.00
2019-03-16T23:47:43.840Z,1.00
2019-03-16T23:50:14.422Z,1.00
2019-03-16T23:52:45.115Z,1.00
2019-03-16T23:55:15.708Z,1.00
2019-03-16T23:57:46.305Z,1.00
